Nearby METAR Reports

 

KBJC - Broomfield/Jeffc, Colorado, USA
Distance from station: NNW 11mi, 17km
Updated: 11/17/2018 4:12am
Light rain, Overcast
Light rain, Overcast
 Wind from E
Wind: E 3 mph , 6 km/h
Temperature: 34°F , 1°C
Dew Point: 32°F , 0°C
Humidity: 93%
Summary: Light rain
Clouds: Overcast
Visibility: 7 miles , 11 km
Cloud details: Mostly cloudy 1300 ft
Overcast 1900 ft
2018/11/17 11:12 KBJC 171112Z AUTO 09003KT 7SM -RA BKN013 OVC019 01/00 A301
KBKF - Buckley Angb/Den, Colorado, USA
Distance from station: E 16mi, 25km
Updated: 11/17/2018 3:58am
Overcast
Overcast
 Wind from calm
Wind: Calm
Temperature: 32°F , 0°C
Dew Point: 30°F , -1°C
Humidity: 93%
Barometer: 30.13 inHg , 1020.3 hPa
Clouds: Overcast
Visibility: 10 miles , 16 km
Cloud details: Partly cloudy 700 ft
Overcast 1000 ft
2018/11/17 10:58 KBKF 171058Z 00000KT 10SM SCT007 OVC010 00/M01 A3013 RMK AO2A SLP187 T00041009
 
KAPA - Denver/Arapahoe, Colorado, USA
Distance from station: SE 16mi, 26km
Updated: 11/17/2018 3:53am
Light snow, Overcast
Light snow, Overcast
 Wind from calm
Wind: Calm
Temperature: 34°F , 1°C
Dew Point: 28°F , -2°C
Humidity: 81%
Barometer: 30.13 inHg , 1020.3 hPa
Summary: Light Snow
Clouds: Overcast
Visibility: 9 miles , 14 km
Cloud details: Overcast 1200 ft
2018/11/17 10:53 KAPA 171053Z 00000KT 9SM -SN OVC012 01/M02 A3013 RMK AO2 SNB23 SLP201 SN VRY LGT P0000 T00061017
KEIK - Erie Muni, Colorado, USA
Distance from station: N 18mi, 29km
Updated: 11/17/2018 4:12am
Overcast
Overcast
 Wind from calm
Wind: Calm
Temperature: 36°F , 2°C
Dew Point: 32°F , 0°C
Humidity: 87%
Barometer: 30.20 inHg , 1022.7 hPa
Clouds: Overcast
Visibility: 10 miles , 16 km
Cloud details: Overcast 1800 ft
2018/11/17 11:12 KEIK 171112Z AUTO 00000KT 10SM OVC018 02/00 A3020 RMK AO2 T00221001
 
KBDU - Boulder Muni, Colorado, USA
Distance from station: NNW 22mi, 35km
Updated: 11/17/2018 4:12am
Overcast
Overcast
 Wind from calm
Wind: Calm
Temperature: 36°F , 2°C
Dew Point: 32°F , 0°C
Humidity: 87%
Barometer: 30.14 inHg , 1020.7 hPa
Clouds: Overcast
Visibility: 10 miles , 16 km
Cloud details: Overcast 1700 ft
2018/11/17 11:12 KBDU 171112Z AUTO 00000KT 10SM OVC017 02/00 A3014 RMK AO2
KDEN - Denver (dia), Colorado, USA
Distance from station: ENE 22mi, 35km
Updated: 11/17/2018 3:53am
Light snow, Overcast
Light snow, Overcast
 Wind from E
Wind: E 6 mph , 9 km/h
Temperature: 34°F , 1°C
Wind Chill: 29°F , -2°C
Dew Point: 30°F , -1°C
Humidity: 87%
Barometer: 30.13 inHg , 1020.3 hPa
Summary: Light Snow
Clouds: Overcast
Visibility: 9 miles , 14 km
Cloud details: Overcast 1100 ft
2018/11/17 10:53 KDEN 171053Z 08005KT 9SM -SN OVC011 01/M01 A3013 RMK AO2 SNB29 SLP189 P0000 T00111011
 
KFTG - Denver F. Range, Colorado, USA
Distance from station: E 26mi, 42km
Updated: 11/17/2018 4:12am
Overcast
Overcast
 Wind from ENE
Wind: ENE 5 mph , 7 km/h
Temperature: 36°F , 2°C
Wind Chill: 32°F , 0°C
Dew Point: 32°F , 0°C
Humidity: 87%
Barometer: 30.14 inHg , 1020.7 hPa
Clouds: Overcast
Visibility: 10 miles , 16 km
Cloud details: Overcast 1000 ft
2018/11/17 11:12 KFTG 171112Z AUTO 06004KT 10SM OVC010 02/00 A3014 RMK AO2 T00171002
KLMO - Longmont/Vbrand, Colorado, USA
Distance from station: NNW 29mi, 47km
Updated: 11/17/2018 3:55am
Overcast
Overcast
 Wind from ENE
Wind: ENE 3 mph , 6 km/h
Temperature: 39°F , 4°C
Dew Point: 32°F , 0°C
Humidity: 75%
Barometer: 30.17 inHg , 1021.7 hPa
Clouds: Overcast
Visibility: 10 miles , 16 km
Cloud details: Overcast 1800 ft
2018/11/17 10:55 KLMO 171055Z AUTO 07003KT 10SM OVC018 04/00 A3017 RMK AO2 T00351004
 
K0CO - Berthoud Pass, Colorado, USA
Distance from station: W 39mi, 62km
Updated: 11/17/2018 4:24am
Clear
Clear
 Wind from W
Wind: W 24 mph , 39 km/h, Gust: 30 mph , 48 km/h
Temperature: 19°F , -7°C
Wind Chill: 2°F , -17°C
Dew Point: 5°F , -15°C
Humidity: 53%
Barometer: 30.09 inHg , 1019 hPa
Clouds: Clear
Visibility: 10 miles , 16 km
2018/11/17 11:24 K0CO 171124Z AUTO 27021G26KT 10SM CLR M07/M15 A3009 RMK AO2
KMNH - Monument/Elbert, Colorado, USA
Distance from station: SSE 43mi, 68km
Updated: 11/17/2018 4:06am
Freezing fog, Overcast
Freezing fog, Overcast
 Wind from N
Wind: N 3 mph , 6 km/h
Temperature: 28°F , -2°C
Dew Point: 28°F , -2°C
Humidity: 100%
Barometer: 30.12 inHg , 1020 hPa
Summary: Freezing Fog
Clouds: Overcast
Visibility: 1/4 mile , 0.4 km
Cloud details: Overcast 200 ft
2018/11/17 11:06 KMNH 171106Z AUTO 36003KT 1/4SM FZFG OVC002 M02/M02 A3012 RMK AO
 
KFNL - Ft Collins/Lovel, Colorado, USA
Distance from station: N 48mi, 78km
Updated: 11/17/2018 3:56am
Overcast
Overcast
 Wind from E
Wind: E 6 mph , 9 km/h
Temperature: 36°F , 2°C
Wind Chill: 31°F , -1°C
Dew Point: 32°F , 0°C
Humidity: 87%
Barometer: 30.16 inHg , 1021.3 hPa
Clouds: Overcast
Visibility: 10 miles , 16 km
Cloud details: Overcast 1900 ft
2018/11/17 10:56 KFNL 171056Z AUTO 08005KT 10SM UP OVC019 02/00 A3016 RMK AO2 UPB23 SLP205 T00170000 FZRANO PNO $